Pythagoras — C6ZO4 — position and weather

sailwx.info

Track history (hours):
 
Tides and Currents Weather Stations Pressure Air Temp Water Temp Dewpoint Dewpoint Depression Visibility Wind Speed Wind Dir Waves Ship Positions

Pythagoras

Last reported at 2015-Aug-30 20:06 UTC. Time now 2015-Aug-31 17:45 UTC.
Position N 01°16' E 104°14'.

Length 190 m; draft 12 m.

Type: Cargo ship. MMSI: 311061300.

Date/timePositionNaut miles runAvg speedWind from/ knotsBaromVisibWave heightAir tempDewpointWater temp
2015-Aug-30 20:06N 01°16' E 104°14'814.8
2015-Aug-30 19:33N 01°15' E 104°06'8 8.4
2015-Aug-30 18:33N 01°15' E 103°57'2 1.7
2015-Aug-30 17:28N 01°17' E 103°57'0 0.1
2015-Aug-30 16:28N 01°17' E 103°57'0 0.0
2015-Aug-30 15:31N 01°17' E 103°57'0 0.0
2015-Aug-30 14:28N 01°17' E 103°57'0 0.0
2015-Aug-30 13:25N 01°17' E 103°57'0 0.0
2015-Aug-30 12:28N 01°17' E 103°57'0 0.1
2015-Aug-30 11:31N 01°17' E 103°57'0 0.1
2015-Aug-30 10:31N 01°17' E 103°57'0 0.1
2015-Aug-30 09:28N 01°17' E 103°58'0 0.1
2015-Aug-30 08:28N 01°17' E 103°58'0 0.0
2015-Aug-30 07:33N 01°17' E 103°58'0 0.3
2015-Aug-30 06:33N 01°17' E 103°58'3 3.0
2015-Aug-30 05:33N 01°14' E 103°57'8 8.1
2015-Aug-30 04:33N 01°10' E 103°50'9 8.6
2015-Aug-30 03:32N 01°05' E 103°43'13612.2
2015-Aug-29 16:27N 02°17' E 101°48'1011.5
2015-Aug-29 15:34N 02°23' E 101°40'1312.5
2015-Aug-29 14:33N 02°31' E 101°30'1912.9
2015-Aug-29 13:06N 02°41' E 101°14'2313.5
2015-Aug-29 11:21N 02°54' E 100°54'6513.6
2015-Aug-29 06:33N 03°39' E 100°07'  
Track history (hours):
 
Tides and Currents Weather Stations Pressure Air Temp Water Temp Dewpoint Dewpoint Depression Visibility Wind Speed Wind Dir Waves Ship Positions

Pythagoras

Last reported at 2015-Aug-30 20:06 UTC. Time now 2015-Aug-31 17:45 UTC.
Position N 01°16' E 104°14'.

Length 190 m; draft 12 m.

Type: Cargo ship. MMSI: 311061300.

Date/timePositionNaut miles runAvg speedWind from/ knotsBaromVisibWave heightAir tempDewpointWater temp
2015-Aug-30 20:06N 01°16' E 104°14'814.8
2015-Aug-30 19:33N 01°15' E 104°06'8 8.4
2015-Aug-30 18:33N 01°15' E 103°57'2 1.7
2015-Aug-30 17:28N 01°17' E 103°57'0 0.1
2015-Aug-30 16:28N 01°17' E 103°57'0 0.0
2015-Aug-30 15:31N 01°17' E 103°57'0 0.0
2015-Aug-30 14:28N 01°17' E 103°57'0 0.0
2015-Aug-30 13:25N 01°17' E 103°57'0 0.0
2015-Aug-30 12:28N 01°17' E 103°57'0 0.1
2015-Aug-30 11:31N 01°17' E 103°57'0 0.1
2015-Aug-30 10:31N 01°17' E 103°57'0 0.1
2015-Aug-30 09:28N 01°17' E 103°58'0 0.1
2015-Aug-30 08:28N 01°17' E 103°58'0 0.0
2015-Aug-30 07:33N 01°17' E 103°58'0 0.3
2015-Aug-30 06:33N 01°17' E 103°58'3 3.0
2015-Aug-30 05:33N 01°14' E 103°57'8 8.1
2015-Aug-30 04:33N 01°10' E 103°50'9 8.6
2015-Aug-30 03:32N 01°05' E 103°43'13612.2
2015-Aug-29 16:27N 02°17' E 101°48'1011.5
2015-Aug-29 15:34N 02°23' E 101°40'1312.5
2015-Aug-29 14:33N 02°31' E 101°30'1912.9
2015-Aug-29 13:06N 02°41' E 101°14'2313.5
2015-Aug-29 11:21N 02°54' E 100°54'6513.6
2015-Aug-29 06:33N 03°39' E 100°07'  

Dump ship's entire track history